createdAt,value
2023-04-16T00:01:22.329Z,9.55
2023-04-16T00:03:49.072Z,9.59
2023-04-16T00:06:15.705Z,9.53
2023-04-16T00:08:43.534Z,9.56
2023-04-16T00:11:09.988Z,9.51
2023-04-16T00:13:36.864Z,9.41
2023-04-16T00:16:03.289Z,9.32
2023-04-16T00:18:29.744Z,9.29
2023-04-16T00:20:56.390Z,9.33
2023-04-16T00:23:24.984Z,9.39
2023-04-16T00:25:51.741Z,9.40
2023-04-16T00:28:18.203Z,9.45
2023-04-16T00:30:44.665Z,9.43
2023-04-16T00:33:11.229Z,9.38
2023-04-16T00:35:37.765Z,9.33
2023-04-16T00:38:04.115Z,9.32
2023-04-16T00:40:30.799Z,9.32
2023-04-16T00:42:57.247Z,9.34
2023-04-16T00:45:23.745Z,9.40
2023-04-16T00:47:50.398Z,9.41
2023-04-16T00:50:19.180Z,9.33
2023-04-16T00:52:48.133Z,9.30
2023-04-16T00:55:17.622Z,9.27
2023-04-16T00:57:45.023Z,9.24
2023-04-16T01:00:12.169Z,9.18
2023-04-16T01:02:39.819Z,9.19
2023-04-16T01:05:06.801Z,9.19
2023-04-16T01:07:33.341Z,9.15
2023-04-16T01:09:59.817Z,9.20
2023-04-16T01:12:26.285Z,9.25
2023-04-16T01:14:52.921Z,9.19
2023-04-16T01:17:19.382Z,9.21
2023-04-16T01:19:45.950Z,9.22
2023-04-16T01:22:12.420Z,9.24
2023-04-16T01:24:40.482Z,9.26
2023-04-16T01:27:09.980Z,9.26
2023-04-16T01:29:36.605Z,9.20
2023-04-16T01:32:03.218Z,9.19
2023-04-16T01:34:35.868Z,9.15
2023-04-16T01:37:03.731Z,9.11
2023-04-16T01:39:30.368Z,9.16
2023-04-16T01:41:57.523Z,9.24
2023-04-16T01:44:23.940Z,9.30
2023-04-16T01:46:50.424Z,9.29
2023-04-16T01:49:16.918Z,9.23
2023-04-16T01:51:43.919Z,9.12
2023-04-16T01:54:10.520Z,9.08
2023-04-16T01:56:37.020Z,9.10
2023-04-16T01:59:03.464Z,9.13
2023-04-16T02:01:35.932Z,9.14
2023-04-16T02:04:03.205Z,9.16
2023-04-16T02:06:30.512Z,9.16
2023-04-16T02:08:56.929Z,9.08
2023-04-16T02:11:24.759Z,9.04
2023-04-16T02:13:51.199Z,9.05
2023-04-16T02:16:18.616Z,9.15
2023-04-16T02:18:50.354Z,9.13
2023-04-16T02:21:20.134Z,9.11
2023-04-16T02:23:47.857Z,9.05
2023-04-16T02:26:14.338Z,9.07
2023-04-16T02:28:41.406Z,9.15
2023-04-16T02:31:10.230Z,9.16
2023-04-16T02:33:41.761Z,9.16
2023-04-16T02:36:10.478Z,9.14
2023-04-16T02:38:37.511Z,9.13
2023-04-16T02:41:04.072Z,9.13
2023-04-16T02:43:30.581Z,9.15
2023-04-16T02:45:59.195Z,9.16
2023-04-16T02:48:25.742Z,9.22
2023-04-16T02:50:52.166Z,9.18
2023-04-16T02:53:19.170Z,9.21
2023-04-16T02:55:55.166Z,9.10
2023-04-16T02:58:23.960Z,9.04
2023-04-16T03:00:51.548Z,9.02
2023-04-16T03:03:18.397Z,9.08
2023-04-16T03:05:44.834Z,9.05
2023-04-16T03:08:11.441Z,9.01
2023-04-16T03:10:37.983Z,8.99
2023-04-16T03:13:05.077Z,8.94
2023-04-16T03:15:31.613Z,9.00
2023-04-16T03:17:58.148Z,9.06
2023-04-16T03:20:24.703Z,9.09
2023-04-16T03:22:52.569Z,9.08
2023-04-16T03:25:19.292Z,9.12
2023-04-16T03:27:45.706Z,9.09
2023-04-16T03:30:14.288Z,9.00
2023-04-16T03:32:41.343Z,9.02
2023-04-16T03:35:08.991Z,9.03
2023-04-16T03:37:37.081Z,9.00
2023-04-16T03:40:05.783Z,8.96
2023-04-16T03:42:32.348Z,8.99
2023-04-16T03:44:59.315Z,8.98
2023-04-16T03:47:26.295Z,8.99
2023-04-16T03:49:56.288Z,8.96
2023-04-16T03:52:22.706Z,8.89
2023-04-16T03:54:49.144Z,8.95
2023-04-16T03:57:27.096Z,9.00
2023-04-16T03:59:57.740Z,9.03
2023-04-16T04:02:27.194Z,9.01
2023-04-16T04:04:53.915Z,9.02
2023-04-16T04:07:20.476Z,8.97
2023-04-16T04:09:46.908Z,8.97
2023-04-16T04:12:14.847Z,8.99
2023-04-16T04:14:42.870Z,8.95
2023-04-16T04:17:09.354Z,8.89
2023-04-16T04:19:35.906Z,8.84
2023-04-16T04:22:03.482Z,8.81
2023-04-16T04:24:29.915Z,8.82
2023-04-16T04:26:57.506Z,8.81
2023-04-16T04:29:24.139Z,8.83
2023-04-16T04:31:50.756Z,8.90
2023-04-16T04:34:17.387Z,8.89
2023-04-16T04:36:44.198Z,8.85
2023-04-16T04:39:12.397Z,8.83
2023-04-16T04:41:40.801Z,8.82
2023-04-16T04:44:07.197Z,8.81
2023-04-16T04:46:33.911Z,8.76
2023-04-16T04:49:00.504Z,8.80
2023-04-16T04:51:27.062Z,8.88
2023-04-16T04:53:53.544Z,8.92
2023-04-16T04:56:20.837Z,8.91
2023-04-16T04:58:50.206Z,8.94
2023-04-16T05:01:19.914Z,8.98
2023-04-16T05:03:46.491Z,8.99
2023-04-16T05:06:12.993Z,9.04
2023-04-16T05:08:39.467Z,9.07
2023-04-16T05:11:06.005Z,9.05
2023-04-16T05:13:32.472Z,8.92
2023-04-16T05:15:59.614Z,8.94
2023-04-16T05:18:26.620Z,8.94
2023-04-16T05:20:53.094Z,8.97
2023-04-16T05:23:19.537Z,8.91
2023-04-16T05:25:45.964Z,8.82
2023-04-16T05:28:12.369Z,8.82
2023-04-16T05:30:38.857Z,8.81
2023-04-16T05:33:05.712Z,8.79
2023-04-16T05:35:32.153Z,8.78
2023-04-16T05:37:58.583Z,8.77
2023-04-16T05:40:25.035Z,8.83
2023-04-16T05:42:51.508Z,8.91
2023-04-16T05:45:17.938Z,8.95
2023-04-16T05:47:44.509Z,8.96
2023-04-16T05:50:11.146Z,8.95
2023-04-16T05:52:38.129Z,8.83
2023-04-16T05:55:05.402Z,8.85
2023-04-16T05:57:32.801Z,8.89
2023-04-16T05:59:59.264Z,8.90
2023-04-16T06:02:25.997Z,8.92
2023-04-16T06:04:52.488Z,8.86
2023-04-16T06:07:18.898Z,8.88
2023-04-16T06:09:45.666Z,8.79
2023-04-16T06:12:12.258Z,8.75
2023-04-16T06:14:38.646Z,8.77
2023-04-16T06:17:05.020Z,8.81
2023-04-16T06:19:31.377Z,8.88
2023-04-16T06:21:57.883Z,8.84
2023-04-16T06:24:24.372Z,8.84
2023-04-16T06:26:50.934Z,8.84
2023-04-16T06:29:17.307Z,8.85
2023-04-16T06:31:43.814Z,8.85
2023-04-16T06:34:10.566Z,8.86
2023-04-16T06:36:37.576Z,8.82
2023-04-16T06:39:04.139Z,8.80
2023-04-16T06:41:30.763Z,8.79
2023-04-16T06:43:57.171Z,8.83
2023-04-16T06:46:23.752Z,8.87
2023-04-16T06:48:50.408Z,8.83
2023-04-16T06:51:16.846Z,8.84
2023-04-16T06:53:43.337Z,8.83
2023-04-16T06:56:09.758Z,8.86
2023-04-16T06:58:36.303Z,8.89
2023-04-16T07:01:02.928Z,8.89
2023-04-16T07:03:29.505Z,8.87
2023-04-16T07:05:56.625Z,8.83
2023-04-16T07:08:23.069Z,8.83
2023-04-16T07:10:49.542Z,8.84
2023-04-16T07:13:16.052Z,8.89
2023-04-16T07:15:42.476Z,8.88
2023-04-16T07:18:09.391Z,8.83
2023-04-16T07:20:36.314Z,8.83
2023-04-16T07:23:02.730Z,8.84
2023-04-16T07:25:29.181Z,8.89
2023-04-16T07:27:55.609Z,8.79
2023-04-16T07:30:22.024Z,8.80
2023-04-16T07:32:48.540Z,8.86
2023-04-16T07:35:15.015Z,8.89
2023-04-16T07:37:41.522Z,8.89
2023-04-16T07:40:09.708Z,8.85
2023-04-16T07:42:36.211Z,8.83
2023-04-16T07:45:02.665Z,8.85
2023-04-16T07:47:29.082Z,8.91
2023-04-16T07:49:55.503Z,8.93
2023-04-16T07:52:21.884Z,8.94
2023-04-16T07:54:48.391Z,8.88
2023-04-16T07:57:14.810Z,8.85
2023-04-16T07:59:41.301Z,8.85
2023-04-16T08:02:13.411Z,8.84
2023-04-16T08:04:41.795Z,8.78
2023-04-16T08:07:08.500Z,8.81
2023-04-16T08:09:36.080Z,8.84
2023-04-16T08:12:03.361Z,8.80
2023-04-16T08:14:29.751Z,8.88
2023-04-16T08:16:56.420Z,8.94
2023-04-16T08:19:22.839Z,8.94
2023-04-16T08:21:49.290Z,8.94
2023-04-16T08:24:15.709Z,8.96
2023-04-16T08:26:42.088Z,8.97
2023-04-16T08:29:08.840Z,8.94
2023-04-16T08:31:35.450Z,8.99
2023-04-16T08:34:01.918Z,9.01
2023-04-16T08:36:28.386Z,9.01
2023-04-16T08:38:54.776Z,9.06
2023-04-16T08:41:22.054Z,9.14
2023-04-16T08:43:51.593Z,9.19
2023-04-16T08:46:22.681Z,9.11
2023-04-16T08:48:49.873Z,9.15
2023-04-16T08:51:18.634Z,9.15
2023-04-16T08:54:02.804Z,9.16
2023-04-16T08:56:31.642Z,9.09
2023-04-16T08:59:00.939Z,9.05
2023-04-16T09:01:28.173Z,9.03
2023-04-16T09:03:55.664Z,9.06
2023-04-16T09:06:22.456Z,9.11
2023-04-16T09:08:49.586Z,9.09
2023-04-16T09:11:18.278Z,9.13
2023-04-16T09:13:46.533Z,9.13
2023-04-16T09:16:14.095Z,9.19
2023-04-16T09:18:41.343Z,9.16
2023-04-16T09:21:10.740Z,9.14
2023-04-16T09:23:38.655Z,9.16
2023-04-16T09:26:05.954Z,9.22
2023-04-16T09:28:58.668Z,9.29
2023-04-16T09:31:25.319Z,9.29
2023-04-16T09:34:02.311Z,9.22
2023-04-16T09:36:28.966Z,9.26
2023-04-16T09:38:57.615Z,9.33
2023-04-16T09:41:27.254Z,9.38
2023-04-16T09:43:57.587Z,9.39
2023-04-16T09:46:25.604Z,9.38
2023-04-16T09:48:52.038Z,9.34
2023-04-16T09:51:18.632Z,9.36
2023-04-16T09:53:45.575Z,9.36
2023-04-16T09:56:12.946Z,9.35
2023-04-16T09:58:39.526Z,9.35
2023-04-16T10:01:07.306Z,9.36
2023-04-16T10:03:36.086Z,9.34
2023-04-16T10:06:18.472Z,9.37
2023-04-16T10:08:52.524Z,9.38
2023-04-16T10:11:20.422Z,9.41
2023-04-16T10:13:47.403Z,9.43
2023-04-16T10:16:14.005Z,9.43
2023-04-16T10:18:43.419Z,9.48
2023-04-16T10:21:15.298Z,9.48
2023-04-16T10:23:43.221Z,9.54
2023-04-16T10:26:09.758Z,9.57
2023-04-16T10:28:37.005Z,9.62
2023-04-16T10:31:07.362Z,9.51
2023-04-16T10:33:36.333Z,9.45
2023-04-16T10:36:14.492Z,9.45
2023-04-16T10:38:45.614Z,9.48
2023-04-16T10:41:12.307Z,9.46
2023-04-16T10:43:44.215Z,9.51
2023-04-16T10:46:31.310Z,9.42
2023-04-16T10:49:02.680Z,9.45
2023-04-16T10:51:36.442Z,9.52
2023-04-16T10:54:08.836Z,9.54
2023-04-16T10:56:36.935Z,9.54
2023-04-16T10:59:07.664Z,9.56
2023-04-16T11:01:41.742Z,9.61
2023-04-16T11:04:20.445Z,9.66
2023-04-16T11:07:16.418Z,9.71
2023-04-16T11:10:05.199Z,9.79
2023-04-16T11:12:40.355Z,9.82
2023-04-16T11:15:11.696Z,9.85
2023-04-16T11:17:40.430Z,9.87
2023-04-16T11:20:19.231Z,9.85
2023-04-16T11:22:54.848Z,9.83
2023-04-16T11:25:29.698Z,9.84
2023-04-16T11:27:58.664Z,9.85
2023-04-16T11:30:33.980Z,9.89
2023-04-16T11:33:04.702Z,9.91
2023-04-16T11:35:31.415Z,9.95
2023-04-16T11:37:58.502Z,9.85
2023-04-16T11:40:29.195Z,9.78
2023-04-16T11:42:55.660Z,9.83
2023-04-16T11:45:22.094Z,9.89
2023-04-16T11:47:55.151Z,9.99
2023-04-16T11:50:24.003Z,10.05
2023-04-16T11:52:52.293Z,10.06
2023-04-16T11:55:19.794Z,10.11
2023-04-16T11:57:46.288Z,10.16
2023-04-16T12:00:14.174Z,10.21
2023-04-16T12:02:51.722Z,10.24
2023-04-16T12:05:35.896Z,10.24
2023-04-16T12:08:07.178Z,10.21
2023-04-16T12:10:35.802Z,10.22
2023-04-16T12:13:12.654Z,10.29
2023-04-16T12:15:48.917Z,10.37
2023-04-16T12:18:16.581Z,10.33
2023-04-16T12:20:44.334Z,10.43
2023-04-16T12:23:22.143Z,10.51
2023-04-16T12:25:50.003Z,10.58
2023-04-16T12:28:27.651Z,10.61
2023-04-16T12:30:54.153Z,10.64
2023-04-16T12:33:21.170Z,10.73
2023-04-16T12:35:47.753Z,10.76
2023-04-16T12:38:15.317Z,10.86
2023-04-16T12:40:41.856Z,10.89
2023-04-16T12:43:10.443Z,10.88
2023-04-16T12:45:38.157Z,10.87
2023-04-16T12:48:04.852Z,10.75
2023-04-16T12:50:31.438Z,10.75
2023-04-16T12:52:58.139Z,10.77
2023-04-16T12:55:25.083Z,10.80
2023-04-16T12:57:52.936Z,10.80
2023-04-16T13:00:20.511Z,10.82
2023-04-16T13:02:47.384Z,10.83
2023-04-16T13:05:16.529Z,10.85
2023-04-16T13:07:43.107Z,10.86
2023-04-16T13:10:09.994Z,10.90
2023-04-16T13:12:36.662Z,10.97
2023-04-16T13:15:03.151Z,11.09
2023-04-16T13:17:29.603Z,11.17
2023-04-16T13:19:56.103Z,11.18
2023-04-16T13:22:22.569Z,11.06
2023-04-16T13:24:49.015Z,10.99
2023-04-16T13:27:16.816Z,11.06
2023-04-16T13:29:43.256Z,11.02
2023-04-16T13:32:09.643Z,11.32
2023-04-16T13:34:36.142Z,11.56
2023-04-16T13:37:02.508Z,11.52
2023-04-16T13:39:28.945Z,11.42
2023-04-16T13:41:55.479Z,11.22
2023-04-16T13:44:21.932Z,11.18
2023-04-16T13:46:48.323Z,11.13
2023-04-16T13:49:14.903Z,11.03
2023-04-16T13:51:44.617Z,10.97
2023-04-16T13:54:11.251Z,10.97
2023-04-16T13:56:37.833Z,10.94
2023-04-16T13:59:04.280Z,10.94
2023-04-16T14:01:30.900Z,10.86
2023-04-16T14:03:57.367Z,10.83
2023-04-16T14:06:23.819Z,10.89
2023-04-16T14:08:50.306Z,10.93
2023-04-16T14:11:16.726Z,10.97
2023-04-16T14:13:43.161Z,11.04
2023-04-16T14:16:09.544Z,11.00
2023-04-16T14:18:36.329Z,11.03
2023-04-16T14:21:02.810Z,11.03
2023-04-16T14:23:29.260Z,11.03
2023-04-16T14:25:56.107Z,10.98
2023-04-16T14:28:22.547Z,10.99
2023-04-16T14:30:48.948Z,11.01
2023-04-16T14:33:15.551Z,11.00
2023-04-16T14:35:41.994Z,10.99
2023-04-16T14:38:08.526Z,10.92
2023-04-16T14:40:35.203Z,10.93
2023-04-16T14:43:01.699Z,10.97
2023-04-16T14:45:29.928Z,11.02
2023-04-16T14:47:56.991Z,11.04
2023-04-16T14:50:23.543Z,11.07
2023-04-16T14:52:50.682Z,11.05
2023-04-16T14:55:17.162Z,11.07
2023-04-16T14:57:43.674Z,11.08
2023-04-16T15:00:11.869Z,11.04
2023-04-16T15:02:38.568Z,10.97
2023-04-16T15:05:05.528Z,10.96
2023-04-16T15:07:32.499Z,10.98
2023-04-16T15:09:58.974Z,10.96
2023-04-16T15:12:26.424Z,10.97
2023-04-16T15:14:52.825Z,10.95
2023-04-16T15:17:19.691Z,10.96
2023-04-16T15:19:46.439Z,10.99
2023-04-16T15:22:14.676Z,10.92
2023-04-16T15:24:41.146Z,10.80
2023-04-16T15:27:11.117Z,10.83
2023-04-16T15:29:38.272Z,10.86
2023-04-16T15:32:04.817Z,10.93
2023-04-16T15:34:31.274Z,10.97
2023-04-16T15:36:57.804Z,10.94
2023-04-16T15:39:24.176Z,10.96
2023-04-16T15:42:00.703Z,10.95
2023-04-16T15:44:28.110Z,10.95
2023-04-16T15:46:54.588Z,11.01
2023-04-16T15:49:20.974Z,11.04
2023-04-16T15:51:47.447Z,11.06
2023-04-16T15:54:13.972Z,11.04
2023-04-16T15:56:40.576Z,11.01
2023-04-16T15:59:06.949Z,10.95
2023-04-16T16:01:33.425Z,10.99
2023-04-16T16:04:07.145Z,11.01
2023-04-16T16:06:33.825Z,10.94
2023-04-16T16:09:00.325Z,11.00
2023-04-16T16:11:27.325Z,10.99
2023-04-16T16:13:53.791Z,11.01
2023-04-16T16:16:21.684Z,10.89
2023-04-16T16:18:48.291Z,10.90
2023-04-16T16:21:14.705Z,10.94
2023-04-16T16:23:41.234Z,11.00
2023-04-16T16:26:07.724Z,10.97
2023-04-16T16:28:37.404Z,10.93
2023-04-16T16:31:05.838Z,10.87
2023-04-16T16:33:32.429Z,10.85
2023-04-16T16:35:58.840Z,10.82
2023-04-16T16:38:25.720Z,10.80
2023-04-16T16:40:52.157Z,10.82
2023-04-16T16:43:18.513Z,10.81
2023-04-16T16:45:44.967Z,10.80
2023-04-16T16:48:11.383Z,10.76
2023-04-16T16:50:37.858Z,10.73
2023-04-16T16:53:04.451Z,10.67
2023-04-16T16:55:31.185Z,10.69
2023-04-16T16:57:58.412Z,10.66
2023-04-16T17:00:24.849Z,10.60
2023-04-16T17:02:52.059Z,10.68
2023-04-16T17:05:18.700Z,10.67
2023-04-16T17:07:45.783Z,10.72
2023-04-16T17:10:22.344Z,10.76
2023-04-16T17:12:50.408Z,10.72
2023-04-16T17:15:19.663Z,10.62
2023-04-16T17:17:47.869Z,10.55
2023-04-16T17:20:14.325Z,10.59
2023-04-16T17:22:40.855Z,10.60
2023-04-16T17:25:08.016Z,10.55
2023-04-16T17:27:34.767Z,10.49
2023-04-16T17:30:02.412Z,10.52
2023-04-16T17:32:30.037Z,10.56
2023-04-16T17:34:56.798Z,10.52
2023-04-16T17:37:23.481Z,10.52
2023-04-16T17:39:50.098Z,10.47
2023-04-16T17:42:17.008Z,10.38
2023-04-16T17:44:43.400Z,10.34
2023-04-16T17:47:10.048Z,10.36
2023-04-16T17:49:36.478Z,10.40
2023-04-16T17:52:03.030Z,10.38
2023-04-16T17:54:29.520Z,10.37
2023-04-16T17:56:57.553Z,10.39
2023-04-16T17:59:23.984Z,10.42
2023-04-16T18:01:50.551Z,10.47
2023-04-16T18:04:17.510Z,10.39
2023-04-16T18:06:44.304Z,10.34
2023-04-16T18:09:11.275Z,10.27
2023-04-16T18:11:38.052Z,10.34
2023-04-16T18:14:04.458Z,10.32
2023-04-16T18:16:30.951Z,10.30
2023-04-16T18:18:57.579Z,10.32
2023-04-16T18:21:23.986Z,10.33
2023-04-16T18:23:50.403Z,10.26
2023-04-16T18:26:20.462Z,10.26
2023-04-16T18:28:48.637Z,10.27
2023-04-16T18:31:15.333Z,10.22
2023-04-16T18:33:55.471Z,10.26
2023-04-16T18:36:23.590Z,10.27
2023-04-16T18:38:59.972Z,10.22
2023-04-16T18:41:29.027Z,10.22
2023-04-16T18:43:55.541Z,10.26
2023-04-16T18:46:22.105Z,10.22
2023-04-16T18:48:48.542Z,10.08
2023-04-16T18:51:16.275Z,9.95
2023-04-16T18:53:44.480Z,9.86
2023-04-16T18:56:11.576Z,9.87
2023-04-16T18:58:38.094Z,9.96
2023-04-16T19:01:05.236Z,9.99
2023-04-16T19:03:31.842Z,9.99
2023-04-16T19:05:58.371Z,9.97
2023-04-16T19:08:24.799Z,9.95
2023-04-16T19:10:51.292Z,9.91
2023-04-16T19:13:17.824Z,9.96
2023-04-16T19:15:44.251Z,9.96
2023-04-16T19:18:10.800Z,9.96
2023-04-16T19:20:37.739Z,9.95
2023-04-16T19:23:05.545Z,9.93
2023-04-16T19:25:32.362Z,9.90
2023-04-16T19:27:58.831Z,9.90
2023-04-16T19:30:25.574Z,9.88
2023-04-16T19:32:55.064Z,9.89
2023-04-16T19:35:21.965Z,9.85
2023-04-16T19:37:48.377Z,9.81
2023-04-16T19:40:14.868Z,9.82
2023-04-16T19:42:41.387Z,9.89
2023-04-16T19:45:08.084Z,9.89
2023-04-16T19:47:34.518Z,9.91
2023-04-16T19:50:00.949Z,9.98
2023-04-16T19:52:27.443Z,9.95
2023-04-16T19:54:53.846Z,9.99
2023-04-16T19:57:20.315Z,10.00
2023-04-16T19:59:46.763Z,10.02
2023-04-16T20:02:13.263Z,10.08
2023-04-16T20:04:39.732Z,10.09
2023-04-16T20:07:06.367Z,10.10
2023-04-16T20:09:32.878Z,10.07
2023-04-16T20:11:59.263Z,9.99
2023-04-16T20:14:25.877Z,9.97
2023-04-16T20:16:52.758Z,10.02
2023-04-16T20:19:19.494Z,10.04
2023-04-16T20:21:46.062Z,10.05
2023-04-16T20:24:12.554Z,10.09
2023-04-16T20:26:38.946Z,10.02
2023-04-16T20:29:05.398Z,9.96
2023-04-16T20:31:31.845Z,9.91
2023-04-16T20:33:58.237Z,9.85
2023-04-16T20:36:24.648Z,9.83
2023-04-16T20:38:53.811Z,9.87
2023-04-16T20:41:21.262Z,9.82
2023-04-16T20:43:50.176Z,9.83
2023-04-16T20:46:17.622Z,9.87
2023-04-16T20:48:44.434Z,9.84
2023-04-16T20:51:10.912Z,9.82
2023-04-16T20:53:37.712Z,9.71
2023-04-16T20:56:04.413Z,9.62
2023-04-16T20:58:30.815Z,9.54
2023-04-16T21:00:57.804Z,9.55
2023-04-16T21:03:24.691Z,9.49
2023-04-16T21:05:55.642Z,9.48
2023-04-16T21:08:23.233Z,9.48
2023-04-16T21:10:50.368Z,9.55
2023-04-16T21:13:16.987Z,9.55
2023-04-16T21:15:44.962Z,9.51
2023-04-16T21:18:12.023Z,9.49
2023-04-16T21:20:39.402Z,9.45
2023-04-16T21:23:06.319Z,9.44
2023-04-16T21:25:33.509Z,9.46
2023-04-16T21:28:00.034Z,9.47
2023-04-16T21:30:26.420Z,9.41
2023-04-16T21:32:52.905Z,9.41
2023-04-16T21:35:19.529Z,9.45
2023-04-16T21:37:46.034Z,9.37
2023-04-16T21:40:12.524Z,9.34
2023-04-16T21:42:42.407Z,9.35
2023-04-16T21:45:10.302Z,9.30
2023-04-16T21:47:37.469Z,9.27
2023-04-16T21:50:04.297Z,9.26
2023-04-16T21:52:32.733Z,9.29
2023-04-16T21:54:59.977Z,9.29
2023-04-16T21:57:26.387Z,9.37
2023-04-16T21:59:52.831Z,9.36
2023-04-16T22:02:19.379Z,9.32
2023-04-16T22:04:45.879Z,9.33
2023-04-16T22:07:12.318Z,9.31
2023-04-16T22:09:38.861Z,9.25
2023-04-16T22:12:11.909Z,9.22
2023-04-16T22:14:44.109Z,9.20
2023-04-16T22:17:17.069Z,9.24
2023-04-16T22:19:44.509Z,9.25
2023-04-16T22:22:11.132Z,9.14
2023-04-16T22:24:37.541Z,9.16
2023-04-16T22:27:04.154Z,9.17
2023-04-16T22:29:30.568Z,9.24
2023-04-16T22:31:57.275Z,9.25
2023-04-16T22:34:23.738Z,9.25
2023-04-16T22:36:50.172Z,9.27
2023-04-16T22:39:16.610Z,9.31
2023-04-16T22:41:42.960Z,9.28
2023-04-16T22:44:09.418Z,9.25
2023-04-16T22:46:36.215Z,9.28
2023-04-16T22:49:02.778Z,9.28
2023-04-16T22:51:30.054Z,9.20
2023-04-16T22:53:56.465Z,9.14
2023-04-16T22:56:28.411Z,9.13
2023-04-16T22:58:54.956Z,9.10
2023-04-16T23:01:21.593Z,9.04
2023-04-16T23:03:48.188Z,8.99
2023-04-16T23:06:14.709Z,8.96
2023-04-16T23:08:41.072Z,8.96
2023-04-16T23:11:07.475Z,9.00
2023-04-16T23:13:33.953Z,9.01
2023-04-16T23:16:00.541Z,9.06
2023-04-16T23:18:27.087Z,9.14
2023-04-16T23:20:53.833Z,9.18
2023-04-16T23:23:20.413Z,9.11
2023-04-16T23:25:46.840Z,8.99
2023-04-16T23:28:13.330Z,8.98
2023-04-16T23:30:39.714Z,8.95
2023-04-16T23:33:06.595Z,8.86
2023-04-16T23:35:33.159Z,8.80
2023-04-16T23:37:59.534Z,8.76
2023-04-16T23:40:26.065Z,8.73
2023-04-16T23:42:52.483Z,8.71
2023-04-16T23:45:19.006Z,8.74
2023-04-16T23:47:45.720Z,8.85
2023-04-16T23:50:12.370Z,8.85
2023-04-16T23:52:38.863Z,8.90
2023-04-16T23:55:05.688Z,8.88
2023-04-16T23:57:32.169Z,8.82
2023-04-16T23:59:58.627Z,8.88
